sensor_id;sensor_type;location;lat;lon;timestamp;P1;durP1;ratioP1;P2;durP2;ratioP2
14776;SDS011;7480;43.124;25.686;2023-05-18T00:02:17;20.63;;;11.20;;
14776;SDS011;7480;43.124;25.686;2023-05-18T00:04:44;16.90;;;10.93;;
14776;SDS011;7480;43.124;25.686;2023-05-18T00:07:11;12.13;;;10.13;;
14776;SDS011;7480;43.124;25.686;2023-05-18T00:09:38;14.90;;;11.00;;
14776;SDS011;7480;43.124;25.686;2023-05-18T00:12:06;15.80;;;11.30;;
14776;SDS011;7480;43.124;25.686;2023-05-18T00:14:34;14.67;;;11.27;;
14776;SDS011;7480;43.124;25.686;2023-05-18T00:17:01;16.13;;;11.60;;
14776;SDS011;7480;43.124;25.686;2023-05-18T00:19:28;14.13;;;11.23;;
14776;SDS011;7480;43.124;25.686;2023-05-18T00:21:55;15.80;;;11.37;;
14776;SDS011;7480;43.124;25.686;2023-05-18T00:24:22;19.43;;;10.90;;
14776;SDS011;7480;43.124;25.686;2023-05-18T00:26:49;18.80;;;11.63;;
14776;SDS011;7480;43.124;25.686;2023-05-18T00:29:15;18.23;;;11.07;;
14776;SDS011;7480;43.124;25.686;2023-05-18T00:31:42;17.73;;;11.70;;
14776;SDS011;7480;43.124;25.686;2023-05-18T00:34:12;17.07;;;11.77;;
14776;SDS011;7480;43.124;25.686;2023-05-18T00:36:39;18.07;;;12.03;;
14776;SDS011;7480;43.124;25.686;2023-05-18T00:39:06;18.67;;;11.47;;
14776;SDS011;7480;43.124;25.686;2023-05-18T00:41:33;205.37;;;20.77;;
14776;SDS011;7480;43.124;25.686;2023-05-18T00:43:59;399.40;;;26.47;;
14776;SDS011;7480;43.124;25.686;2023-05-18T00:46:26;16.23;;;12.60;;
14776;SDS011;7480;43.124;25.686;2023-05-18T00:48:54;18.20;;;12.43;;
14776;SDS011;7480;43.124;25.686;2023-05-18T00:51:38;13.46;;;10.90;;
14776;SDS011;7480;43.124;25.686;2023-05-18T00:54:05;17.33;;;12.00;;
14776;SDS011;7480;43.124;25.686;2023-05-18T00:56:33;15.73;;;11.53;;
14776;SDS011;7480;43.124;25.686;2023-05-18T00:59:00;15.80;;;11.53;;
14776;SDS011;7480;43.124;25.686;2023-05-18T01:01:27;14.43;;;11.53;;
14776;SDS011;7480;43.124;25.686;2023-05-18T01:03:55;19.53;;;11.47;;
14776;SDS011;7480;43.124;25.686;2023-05-18T01:06:22;18.73;;;12.20;;
14776;SDS011;7480;43.124;25.686;2023-05-18T01:08:52;16.87;;;12.20;;
14776;SDS011;7480;43.124;25.686;2023-05-18T01:16:34;16.90;;;12.43;;
14776;SDS011;7480;43.124;25.686;2023-05-18T01:19:12;16.20;;;11.90;;
14776;SDS011;7480;43.124;25.686;2023-05-18T01:21:50;18.37;;;12.23;;
14776;SDS011;7480;43.124;25.686;2023-05-18T01:26:54;21.53;;;12.00;;
14776;SDS011;7480;43.124;25.686;2023-05-18T01:29:25;16.70;;;11.90;;
14776;SDS011;7480;43.124;25.686;2023-05-18T01:31:52;19.77;;;12.90;;
14776;SDS011;7480;43.124;25.686;2023-05-18T01:34:19;23.30;;;12.97;;
14776;SDS011;7480;43.124;25.686;2023-05-18T01:36:45;19.87;;;13.43;;
14776;SDS011;7480;43.124;25.686;2023-05-18T01:39:12;20.07;;;12.77;;
14776;SDS011;7480;43.124;25.686;2023-05-18T01:41:50;20.63;;;13.13;;
14776;SDS011;7480;43.124;25.686;2023-05-18T01:44:19;19.07;;;12.87;;
14776;SDS011;7480;43.124;25.686;2023-05-18T01:52:40;20.80;;;15.47;;
14776;SDS011;7480;43.124;25.686;2023-05-18T01:55:09;21.50;;;13.93;;
14776;SDS011;7480;43.124;25.686;2023-05-18T01:57:36;19.27;;;14.33;;
14776;SDS011;7480;43.124;25.686;2023-05-18T02:00:04;19.07;;;14.43;;
14776;SDS011;7480;43.124;25.686;2023-05-18T02:02:33;20.47;;;14.50;;
14776;SDS011;7480;43.124;25.686;2023-05-18T02:05:00;21.00;;;13.87;;
14776;SDS011;7480;43.124;25.686;2023-05-18T02:07:27;18.77;;;14.03;;
14776;SDS011;7480;43.124;25.686;2023-05-18T02:09:53;22.43;;;14.60;;
14776;SDS011;7480;43.124;25.686;2023-05-18T02:12:20;18.93;;;14.50;;
14776;SDS011;7480;43.124;25.686;2023-05-18T02:14:46;22.50;;;15.13;;
14776;SDS011;7480;43.124;25.686;2023-05-18T02:17:13;20.57;;;15.57;;
14776;SDS011;7480;43.124;25.686;2023-05-18T02:19:40;22.50;;;15.00;;
14776;SDS011;7480;43.124;25.686;2023-05-18T02:22:08;19.20;;;15.47;;
14776;SDS011;7480;43.124;25.686;2023-05-18T02:24:34;18.90;;;14.73;;
14776;SDS011;7480;43.124;25.686;2023-05-18T02:27:01;23.27;;;16.07;;
14776;SDS011;7480;43.124;25.686;2023-05-18T02:29:28;22.00;;;15.13;;
14776;SDS011;7480;43.124;25.686;2023-05-18T02:31:54;21.73;;;15.90;;
14776;SDS011;7480;43.124;25.686;2023-05-18T02:34:21;23.73;;;15.43;;
14776;SDS011;7480;43.124;25.686;2023-05-18T02:36:50;24.40;;;15.27;;
14776;SDS011;7480;43.124;25.686;2023-05-18T02:39:16;24.00;;;16.10;;
14776;SDS011;7480;43.124;25.686;2023-05-18T02:41:43;19.83;;;15.50;;
14776;SDS011;7480;43.124;25.686;2023-05-18T02:44:09;20.40;;;15.60;;
14776;SDS011;7480;43.124;25.686;2023-05-18T02:46:37;19.10;;;14.57;;
14776;SDS011;7480;43.124;25.686;2023-05-18T02:49:04;19.30;;;14.70;;
14776;SDS011;7480;43.124;25.686;2023-05-18T02:51:30;18.20;;;14.37;;
14776;SDS011;7480;43.124;25.686;2023-05-18T02:53:57;24.90;;;15.03;;
14776;SDS011;7480;43.124;25.686;2023-05-18T02:56:24;25.23;;;15.03;;
14776;SDS011;7480;43.124;25.686;2023-05-18T02:58:50;19.80;;;14.17;;
14776;SDS011;7480;43.124;25.686;2023-05-18T03:01:23;20.87;;;15.60;;
14776;SDS011;7480;43.124;25.686;2023-05-18T03:03:53;22.87;;;14.77;;
14776;SDS011;7480;43.124;25.686;2023-05-18T03:06:22;28.47;;;15.87;;
14776;SDS011;7480;43.124;25.686;2023-05-18T03:08:52;22.80;;;16.00;;
14776;SDS011;7480;43.124;25.686;2023-05-18T03:11:22;20.37;;;15.83;;
14776;SDS011;7480;43.124;25.686;2023-05-18T03:13:48;18.37;;;15.67;;
14776;SDS011;7480;43.124;25.686;2023-05-18T03:16:15;24.53;;;16.20;;
14776;SDS011;7480;43.124;25.686;2023-05-18T03:18:41;22.57;;;15.10;;
14776;SDS011;7480;43.124;25.686;2023-05-18T03:21:08;20.73;;;15.77;;
14776;SDS011;7480;43.124;25.686;2023-05-18T03:23:35;25.17;;;17.70;;
14776;SDS011;7480;43.124;25.686;2023-05-18T03:26:01;26.87;;;16.57;;
14776;SDS011;7480;43.124;25.686;2023-05-18T03:28:29;24.93;;;16.30;;
14776;SDS011;7480;43.124;25.686;2023-05-18T03:30:56;23.57;;;15.90;;
14776;SDS011;7480;43.124;25.686;2023-05-18T03:33:23;22.13;;;15.87;;
14776;SDS011;7480;43.124;25.686;2023-05-18T03:35:49;22.27;;;16.33;;
14776;SDS011;7480;43.124;25.686;2023-05-18T03:38:17;23.63;;;15.73;;
14776;SDS011;7480;43.124;25.686;2023-05-18T03:40:44;27.43;;;16.13;;
14776;SDS011;7480;43.124;25.686;2023-05-18T03:43:11;24.87;;;17.47;;
14776;SDS011;7480;43.124;25.686;2023-05-18T03:45:37;22.37;;;16.97;;
14776;SDS011;7480;43.124;25.686;2023-05-18T03:48:04;17.57;;;14.23;;
14776;SDS011;7480;43.124;25.686;2023-05-18T03:50:30;21.60;;;15.67;;
14776;SDS011;7480;43.124;25.686;2023-05-18T03:52:57;18.00;;;15.23;;
14776;SDS011;7480;43.124;25.686;2023-05-18T03:55:24;25.33;;;14.93;;
14776;SDS011;7480;43.124;25.686;2023-05-18T03:57:51;21.60;;;16.07;;
14776;SDS011;7480;43.124;25.686;2023-05-18T04:00:19;21.33;;;17.33;;
14776;SDS011;7480;43.124;25.686;2023-05-18T04:02:45;24.70;;;16.97;;
14776;SDS011;7480;43.124;25.686;2023-05-18T04:05:12;22.43;;;17.50;;
14776;SDS011;7480;43.124;25.686;2023-05-18T04:07:39;21.33;;;17.30;;
14776;SDS011;7480;43.124;25.686;2023-05-18T04:10:10;23.60;;;17.23;;
14776;SDS011;7480;43.124;25.686;2023-05-18T04:12:37;22.70;;;16.47;;
14776;SDS011;7480;43.124;25.686;2023-05-18T04:15:04;21.80;;;17.47;;
14776;SDS011;7480;43.124;25.686;2023-05-18T04:17:37;21.87;;;17.83;;
14776;SDS011;7480;43.124;25.686;2023-05-18T04:20:05;22.43;;;16.33;;
14776;SDS011;7480;43.124;25.686;2023-05-18T04:22:42;23.00;;;16.40;;
14776;SDS011;7480;43.124;25.686;2023-05-18T04:25:08;28.90;;;16.73;;
14776;SDS011;7480;43.124;25.686;2023-05-18T04:27:39;26.93;;;17.33;;
14776;SDS011;7480;43.124;25.686;2023-05-18T04:30:07;26.03;;;17.23;;
14776;SDS011;7480;43.124;25.686;2023-05-18T04:32:36;28.70;;;18.53;;
14776;SDS011;7480;43.124;25.686;2023-05-18T04:35:06;23.87;;;18.80;;
14776;SDS011;7480;43.124;25.686;2023-05-18T04:37:33;23.20;;;18.00;;
14776;SDS011;7480;43.124;25.686;2023-05-18T04:40:00;24.47;;;17.43;;
14776;SDS011;7480;43.124;25.686;2023-05-18T04:42:27;21.83;;;16.93;;
14776;SDS011;7480;43.124;25.686;2023-05-18T04:44:54;22.67;;;17.07;;
14776;SDS011;7480;43.124;25.686;2023-05-18T04:47:20;26.30;;;17.90;;
14776;SDS011;7480;43.124;25.686;2023-05-18T04:49:47;23.70;;;16.60;;
14776;SDS011;7480;43.124;25.686;2023-05-18T04:52:14;24.33;;;16.17;;
14776;SDS011;7480;43.124;25.686;2023-05-18T04:54:40;20.47;;;15.23;;
14776;SDS011;7480;43.124;25.686;2023-05-18T04:57:07;19.73;;;15.70;;
14776;SDS011;7480;43.124;25.686;2023-05-18T04:59:34;23.37;;;15.67;;
14776;SDS011;7480;43.124;25.686;2023-05-18T05:02:02;22.70;;;14.97;;
14776;SDS011;7480;43.124;25.686;2023-05-18T05:04:29;20.83;;;14.73;;
14776;SDS011;7480;43.124;25.686;2023-05-18T05:06:56;20.17;;;13.93;;
14776;SDS011;7480;43.124;25.686;2023-05-18T05:09:22;17.03;;;13.57;;
14776;SDS011;7480;43.124;25.686;2023-05-18T05:11:49;19.50;;;13.70;;
14776;SDS011;7480;43.124;25.686;2023-05-18T05:14:15;19.97;;;12.53;;
14776;SDS011;7480;43.124;25.686;2023-05-18T05:16:42;17.23;;;13.17;;
14776;SDS011;7480;43.124;25.686;2023-05-18T05:19:08;19.00;;;12.90;;
14776;SDS011;7480;43.124;25.686;2023-05-18T05:21:35;16.33;;;12.93;;
14776;SDS011;7480;43.124;25.686;2023-05-18T05:24:01;16.63;;;11.43;;
14776;SDS011;7480;43.124;25.686;2023-05-18T05:26:30;13.33;;;11.93;;
14776;SDS011;7480;43.124;25.686;2023-05-18T05:28:57;17.30;;;12.33;;
14776;SDS011;7480;43.124;25.686;2023-05-18T05:31:23;21.13;;;13.63;;
14776;SDS011;7480;43.124;25.686;2023-05-18T05:33:50;14.13;;;12.13;;
14776;SDS011;7480;43.124;25.686;2023-05-18T05:36:16;17.20;;;12.63;;
14776;SDS011;7480;43.124;25.686;2023-05-18T05:38:43;16.10;;;13.20;;
14776;SDS011;7480;43.124;25.686;2023-05-18T05:41:10;17.90;;;13.07;;
14776;SDS011;7480;43.124;25.686;2023-05-18T05:43:36;15.80;;;11.53;;
14776;SDS011;7480;43.124;25.686;2023-05-18T05:46:03;18.07;;;11.83;;
14776;SDS011;7480;43.124;25.686;2023-05-18T05:48:29;18.50;;;11.80;;
14776;SDS011;7480;43.124;25.686;2023-05-18T05:50:56;13.30;;;9.90;;
14776;SDS011;7480;43.124;25.686;2023-05-18T05:53:22;15.53;;;9.20;;
14776;SDS011;7480;43.124;25.686;2023-05-18T05:55:49;12.30;;;8.50;;
14776;SDS011;7480;43.124;25.686;2023-05-18T05:58:16;15.77;;;10.07;;
14776;SDS011;7480;43.124;25.686;2023-05-18T06:00:43;14.27;;;10.20;;
14776;SDS011;7480;43.124;25.686;2023-05-18T06:03:12;12.30;;;7.77;;
14776;SDS011;7480;43.124;25.686;2023-05-18T06:05:38;10.93;;;7.97;;
14776;SDS011;7480;43.124;25.686;2023-05-18T06:08:05;17.70;;;8.90;;
14776;SDS011;7480;43.124;25.686;2023-05-18T06:10:31;14.00;;;8.77;;
14776;SDS011;7480;43.124;25.686;2023-05-18T06:12:58;17.37;;;9.77;;
14776;SDS011;7480;43.124;25.686;2023-05-18T06:15:25;12.88;;;9.63;;
14776;SDS011;7480;43.124;25.686;2023-05-18T06:17:51;12.03;;;8.30;;
14776;SDS011;7480;43.124;25.686;2023-05-18T06:20:18;13.20;;;8.47;;
14776;SDS011;7480;43.124;25.686;2023-05-18T06:22:45;9.50;;;8.13;;
14776;SDS011;7480;43.124;25.686;2023-05-18T06:25:12;11.17;;;8.40;;
14776;SDS011;7480;43.124;25.686;2023-05-18T06:27:38;12.23;;;8.80;;
14776;SDS011;7480;43.124;25.686;2023-05-18T06:30:05;12.90;;;8.93;;
14776;SDS011;7480;43.124;25.686;2023-05-18T06:32:33;15.17;;;9.00;;
14776;SDS011;7480;43.124;25.686;2023-05-18T06:34:59;10.70;;;8.13;;
14776;SDS011;7480;43.124;25.686;2023-05-18T06:37:26;13.00;;;8.03;;
14776;SDS011;7480;43.124;25.686;2023-05-18T06:39:52;13.90;;;8.00;;
14776;SDS011;7480;43.124;25.686;2023-05-18T06:42:19;14.03;;;8.03;;
14776;SDS011;7480;43.124;25.686;2023-05-18T06:44:45;9.07;;;7.30;;
14776;SDS011;7480;43.124;25.686;2023-05-18T06:47:12;13.20;;;7.13;;
14776;SDS011;7480;43.124;25.686;2023-05-18T06:49:38;10.50;;;7.20;;
14776;SDS011;7480;43.124;25.686;2023-05-18T06:52:05;10.07;;;6.47;;
14776;SDS011;7480;43.124;25.686;2023-05-18T06:54:34;9.57;;;7.13;;
14776;SDS011;7480;43.124;25.686;2023-05-18T06:57:01;12.07;;;7.43;;
14776;SDS011;7480;43.124;25.686;2023-05-18T06:59:27;12.33;;;7.23;;
14776;SDS011;7480;43.124;25.686;2023-05-18T07:01:54;13.73;;;7.37;;
14776;SDS011;7480;43.124;25.686;2023-05-18T07:04:21;12.70;;;7.70;;
14776;SDS011;7480;43.124;25.686;2023-05-18T07:06:48;10.03;;;7.53;;
14776;SDS011;7480;43.124;25.686;2023-05-18T07:09:14;10.73;;;6.77;;
14776;SDS011;7480;43.124;25.686;2023-05-18T07:11:41;10.73;;;6.93;;
14776;SDS011;7480;43.124;25.686;2023-05-18T07:14:07;12.10;;;8.10;;
14776;SDS011;7480;43.124;25.686;2023-05-18T07:16:34;12.43;;;8.03;;
14776;SDS011;7480;43.124;25.686;2023-05-18T07:19:00;13.10;;;9.07;;
14776;SDS011;7480;43.124;25.686;2023-05-18T07:21:28;16.23;;;9.67;;
14776;SDS011;7480;43.124;25.686;2023-05-18T07:23:54;10.47;;;9.30;;
14776;SDS011;7480;43.124;25.686;2023-05-18T07:26:21;13.23;;;9.87;;
14776;SDS011;7480;43.124;25.686;2023-05-18T07:28:48;14.03;;;10.03;;
14776;SDS011;7480;43.124;25.686;2023-05-18T07:31:14;16.23;;;9.27;;
14776;SDS011;7480;43.124;25.686;2023-05-18T07:33:42;13.00;;;9.37;;
14776;SDS011;7480;43.124;25.686;2023-05-18T07:36:09;13.70;;;9.33;;
14776;SDS011;7480;43.124;25.686;2023-05-18T07:38:36;15.73;;;10.13;;
14776;SDS011;7480;43.124;25.686;2023-05-18T07:41:02;14.03;;;9.57;;
14776;SDS011;7480;43.124;25.686;2023-05-18T07:43:29;12.87;;;8.70;;
14776;SDS011;7480;43.124;25.686;2023-05-18T07:45:56;15.60;;;9.20;;
14776;SDS011;7480;43.124;25.686;2023-05-18T07:48:22;12.33;;;8.60;;
14776;SDS011;7480;43.124;25.686;2023-05-18T07:50:49;14.20;;;8.67;;
14776;SDS011;7480;43.124;25.686;2023-05-18T07:53:15;11.00;;;8.47;;
14776;SDS011;7480;43.124;25.686;2023-05-18T07:55:42;18.27;;;9.90;;
14776;SDS011;7480;43.124;25.686;2023-05-18T07:58:09;11.13;;;8.90;;
14776;SDS011;7480;43.124;25.686;2023-05-18T08:00:35;11.53;;;9.30;;
14776;SDS011;7480;43.124;25.686;2023-05-18T08:03:02;14.27;;;8.97;;
14776;SDS011;7480;43.124;25.686;2023-05-18T08:05:29;13.20;;;10.03;;
14776;SDS011;7480;43.124;25.686;2023-05-18T08:07:56;17.33;;;9.33;;
14776;SDS011;7480;43.124;25.686;2023-05-18T08:10:23;13.37;;;10.30;;
14776;SDS011;7480;43.124;25.686;2023-05-18T08:12:50;13.27;;;9.57;;
14776;SDS011;7480;43.124;25.686;2023-05-18T08:15:18;15.10;;;9.60;;
14776;SDS011;7480;43.124;25.686;2023-05-18T08:17:44;14.82;;;9.40;;
14776;SDS011;7480;43.124;25.686;2023-05-18T08:20:12;16.30;;;9.87;;
14776;SDS011;7480;43.124;25.686;2023-05-18T08:22:39;11.20;;;9.50;;
14776;SDS011;7480;43.124;25.686;2023-05-18T08:25:05;9.10;;;7.83;;
14776;SDS011;7480;43.124;25.686;2023-05-18T08:27:32;12.77;;;9.00;;
14776;SDS011;7480;43.124;25.686;2023-05-18T08:29:59;9.90;;;8.50;;
14776;SDS011;7480;43.124;25.686;2023-05-18T08:32:25;11.40;;;8.63;;
14776;SDS011;7480;43.124;25.686;2023-05-18T08:34:53;12.40;;;9.10;;
14776;SDS011;7480;43.124;25.686;2023-05-18T08:37:19;13.57;;;9.87;;
14776;SDS011;7480;43.124;25.686;2023-05-18T08:39:47;13.87;;;10.00;;
14776;SDS011;7480;43.124;25.686;2023-05-18T08:45:43;15.50;;;11.50;;
14776;SDS011;7480;43.124;25.686;2023-05-18T08:47:37;12.00;;;10.53;;
14776;SDS011;7480;43.124;25.686;2023-05-18T08:50:04;11.33;;;9.70;;
14776;SDS011;7480;43.124;25.686;2023-05-18T08:52:34;15.27;;;10.80;;
14776;SDS011;7480;43.124;25.686;2023-05-18T08:55:05;14.40;;;11.67;;
14776;SDS011;7480;43.124;25.686;2023-05-18T08:57:35;16.40;;;10.97;;
14776;SDS011;7480;43.124;25.686;2023-05-18T09:00:02;16.43;;;11.33;;
14776;SDS011;7480;43.124;25.686;2023-05-18T09:02:30;15.67;;;10.77;;
14776;SDS011;7480;43.124;25.686;2023-05-18T09:04:57;12.40;;;11.00;;
14776;SDS011;7480;43.124;25.686;2023-05-18T09:07:24;12.30;;;9.77;;
14776;SDS011;7480;43.124;25.686;2023-05-18T09:09:53;11.57;;;8.90;;
14776;SDS011;7480;43.124;25.686;2023-05-18T09:12:20;11.83;;;9.10;;
14776;SDS011;7480;43.124;25.686;2023-05-18T09:14:49;12.33;;;8.73;;
14776;SDS011;7480;43.124;25.686;2023-05-18T09:17:16;12.27;;;8.47;;
14776;SDS011;7480;43.124;25.686;2023-05-18T09:19:43;9.07;;;7.63;;
14776;SDS011;7480;43.124;25.686;2023-05-18T09:22:10;11.47;;;8.43;;
14776;SDS011;7480;43.124;25.686;2023-05-18T09:24:37;12.83;;;7.57;;
14776;SDS011;7480;43.124;25.686;2023-05-18T09:27:04;9.03;;;6.53;;
14776;SDS011;7480;43.124;25.686;2023-05-18T09:29:31;10.97;;;7.63;;
14776;SDS011;7480;43.124;25.686;2023-05-18T09:32:02;9.80;;;6.70;;
14776;SDS011;7480;43.124;25.686;2023-05-18T09:34:40;9.77;;;6.60;;
14776;SDS011;7480;43.124;25.686;2023-05-18T09:37:08;13.10;;;6.47;;
14776;SDS011;7480;43.124;25.686;2023-05-18T09:39:34;6.90;;;5.50;;
14776;SDS011;7480;43.124;25.686;2023-05-18T09:42:04;7.57;;;5.10;;
14776;SDS011;7480;43.124;25.686;2023-05-18T09:44:32;5.73;;;5.10;;
14776;SDS011;7480;43.124;25.686;2023-05-18T09:46:59;7.50;;;5.57;;
14776;SDS011;7480;43.124;25.686;2023-05-18T09:49:28;7.43;;;5.20;;
14776;SDS011;7480;43.124;25.686;2023-05-18T09:51:55;6.57;;;4.83;;
14776;SDS011;7480;43.124;25.686;2023-05-18T09:54:22;10.70;;;4.90;;
14776;SDS011;7480;43.124;25.686;2023-05-18T09:56:49;5.57;;;4.77;;
14776;SDS011;7480;43.124;25.686;2023-05-18T09:59:35;5.80;;;4.10;;
14776;SDS011;7480;43.124;25.686;2023-05-18T10:02:03;5.67;;;3.80;;
14776;SDS011;7480;43.124;25.686;2023-05-18T10:04:37;8.73;;;4.13;;
14776;SDS011;7480;43.124;25.686;2023-05-18T10:07:11;7.33;;;4.83;;
14776;SDS011;7480;43.124;25.686;2023-05-18T10:09:39;5.93;;;4.13;;
14776;SDS011;7480;43.124;25.686;2023-05-18T10:12:10;5.47;;;3.90;;
14776;SDS011;7480;43.124;25.686;2023-05-18T10:14:37;4.27;;;3.60;;
14776;SDS011;7480;43.124;25.686;2023-05-18T10:17:05;6.93;;;4.23;;
14776;SDS011;7480;43.124;25.686;2023-05-18T10:19:41;5.77;;;3.90;;
14776;SDS011;7480;43.124;25.686;2023-05-18T10:22:08;5.13;;;3.77;;
14776;SDS011;7480;43.124;25.686;2023-05-18T10:24:41;6.40;;;4.20;;
14776;SDS011;7480;43.124;25.686;2023-05-18T10:27:09;8.27;;;4.43;;
14776;SDS011;7480;43.124;25.686;2023-05-18T10:29:36;5.40;;;4.17;;
14776;SDS011;7480;43.124;25.686;2023-05-18T10:32:03;7.43;;;4.87;;
14776;SDS011;7480;43.124;25.686;2023-05-18T10:34:33;5.63;;;5.10;;
14776;SDS011;7480;43.124;25.686;2023-05-18T10:37:00;7.37;;;5.33;;
14776;SDS011;7480;43.124;25.686;2023-05-18T10:39:35;7.60;;;5.47;;
14776;SDS011;7480;43.124;25.686;2023-05-18T10:42:02;7.53;;;5.63;;
14776;SDS011;7480;43.124;25.686;2023-05-18T10:44:29;7.57;;;5.60;;
14776;SDS011;7480;43.124;25.686;2023-05-18T10:46:56;8.43;;;5.83;;
14776;SDS011;7480;43.124;25.686;2023-05-18T10:49:23;8.32;;;6.10;;
14776;SDS011;7480;43.124;25.686;2023-05-18T10:51:51;8.10;;;5.20;;
14776;SDS011;7480;43.124;25.686;2023-05-18T10:54:18;7.93;;;5.30;;
14776;SDS011;7480;43.124;25.686;2023-05-18T10:56:45;8.07;;;5.40;;
14776;SDS011;7480;43.124;25.686;2023-05-18T10:59:13;10.03;;;6.13;;
14776;SDS011;7480;43.124;25.686;2023-05-18T11:01:40;12.40;;;6.53;;
14776;SDS011;7480;43.124;25.686;2023-05-18T11:04:07;6.97;;;5.50;;
14776;SDS011;7480;43.124;25.686;2023-05-18T11:06:34;6.80;;;5.13;;
14776;SDS011;7480;43.124;25.686;2023-05-18T11:09:01;7.53;;;5.13;;
14776;SDS011;7480;43.124;25.686;2023-05-18T11:11:28;7.10;;;5.27;;
14776;SDS011;7480;43.124;25.686;2023-05-18T11:14:01;6.27;;;4.83;;
14776;SDS011;7480;43.124;25.686;2023-05-18T11:16:32;10.40;;;5.30;;
14776;SDS011;7480;43.124;25.686;2023-05-18T11:19:04;8.13;;;5.73;;
14776;SDS011;7480;43.124;25.686;2023-05-18T11:24:17;5.50;;;4.50;;
14776;SDS011;7480;43.124;25.686;2023-05-18T11:26:45;6.23;;;4.50;;
14776;SDS011;7480;43.124;25.686;2023-05-18T11:29:19;6.43;;;4.63;;
14776;SDS011;7480;43.124;25.686;2023-05-18T11:31:47;6.27;;;3.87;;
14776;SDS011;7480;43.124;25.686;2023-05-18T11:37:14;6.80;;;4.30;;
14776;SDS011;7480;43.124;25.686;2023-05-18T11:39:41;5.55;;;3.80;;
14776;SDS011;7480;43.124;25.686;2023-05-18T11:42:21;7.83;;;3.87;;
14776;SDS011;7480;43.124;25.686;2023-05-18T11:44:52;5.63;;;3.63;;
14776;SDS011;7480;43.124;25.686;2023-05-18T11:47:19;7.13;;;3.80;;
14776;SDS011;7480;43.124;25.686;2023-05-18T11:49:49;5.73;;;3.83;;
14776;SDS011;7480;43.124;25.686;2023-05-18T11:52:23;6.23;;;3.83;;
14776;SDS011;7480;43.124;25.686;2023-05-18T11:54:51;6.50;;;4.00;;
14776;SDS011;7480;43.124;25.686;2023-05-18T12:00:19;4.60;;;3.90;;
14776;SDS011;7480;43.124;25.686;2023-05-18T12:02:46;6.37;;;4.50;;
14776;SDS011;7480;43.124;25.686;2023-05-18T12:05:14;9.97;;;4.80;;
14776;SDS011;7480;43.124;25.686;2023-05-18T12:07:41;7.23;;;4.50;;
14776;SDS011;7480;43.124;25.686;2023-05-18T12:10:09;6.43;;;5.10;;
14776;SDS011;7480;43.124;25.686;2023-05-18T12:12:36;6.63;;;5.23;;
14776;SDS011;7480;43.124;25.686;2023-05-18T12:15:03;6.27;;;5.37;;
14776;SDS011;7480;43.124;25.686;2023-05-18T12:17:37;10.93;;;6.73;;
14776;SDS011;7480;43.124;25.686;2023-05-18T12:20:15;10.30;;;6.73;;
14776;SDS011;7480;43.124;25.686;2023-05-18T12:22:43;9.17;;;5.80;;
14776;SDS011;7480;43.124;25.686;2023-05-18T12:25:10;6.90;;;5.70;;
14776;SDS011;7480;43.124;25.686;2023-05-18T12:27:40;6.90;;;4.90;;
14776;SDS011;7480;43.124;25.686;2023-05-18T12:30:10;6.60;;;4.30;;
14776;SDS011;7480;43.124;25.686;2023-05-18T12:32:37;6.37;;;3.93;;
14776;SDS011;7480;43.124;25.686;2023-05-18T12:35:04;4.90;;;3.47;;
14776;SDS011;7480;43.124;25.686;2023-05-18T12:37:40;5.57;;;3.37;;
14776;SDS011;7480;43.124;25.686;2023-05-18T12:40:10;5.80;;;4.10;;
14776;SDS011;7480;43.124;25.686;2023-05-18T12:42:36;5.57;;;4.10;;
14776;SDS011;7480;43.124;25.686;2023-05-18T12:45:03;8.77;;;3.73;;
14776;SDS011;7480;43.124;25.686;2023-05-18T12:47:32;9.27;;;5.13;;
14776;SDS011;7480;43.124;25.686;2023-05-18T12:50:06;8.37;;;5.40;;
14776;SDS011;7480;43.124;25.686;2023-05-18T12:52:33;9.10;;;4.60;;
14776;SDS011;7480;43.124;25.686;2023-05-18T12:54:59;3.50;;;2.93;;
14776;SDS011;7480;43.124;25.686;2023-05-18T12:57:26;10.67;;;4.60;;
14776;SDS011;7480;43.124;25.686;2023-05-18T12:59:53;6.20;;;3.80;;
14776;SDS011;7480;43.124;25.686;2023-05-18T13:07:36;6.80;;;3.93;;
14776;SDS011;7480;43.124;25.686;2023-05-18T13:18:00;4.03;;;3.37;;
14776;SDS011;7480;43.124;25.686;2023-05-18T13:20:28;4.80;;;3.60;;
14776;SDS011;7480;43.124;25.686;2023-05-18T13:22:56;5.63;;;3.30;;
14776;SDS011;7480;43.124;25.686;2023-05-18T13:25:25;5.00;;;3.47;;
14776;SDS011;7480;43.124;25.686;2023-05-18T13:27:51;6.80;;;4.13;;
14776;SDS011;7480;43.124;25.686;2023-05-18T13:30:20;6.77;;;3.90;;
14776;SDS011;7480;43.124;25.686;2023-05-18T13:32:48;8.07;;;4.40;;
14776;SDS011;7480;43.124;25.686;2023-05-18T13:35:14;5.87;;;4.90;;
14776;SDS011;7480;43.124;25.686;2023-05-18T13:37:41;7.67;;;4.67;;
14776;SDS011;7480;43.124;25.686;2023-05-18T13:40:07;7.33;;;5.13;;
14776;SDS011;7480;43.124;25.686;2023-05-18T13:42:34;5.87;;;5.00;;
14776;SDS011;7480;43.124;25.686;2023-05-18T13:45:01;8.73;;;5.43;;
14776;SDS011;7480;43.124;25.686;2023-05-18T13:47:27;5.80;;;5.20;;
14776;SDS011;7480;43.124;25.686;2023-05-18T13:49:54;8.00;;;5.27;;
14776;SDS011;7480;43.124;25.686;2023-05-18T13:52:20;7.27;;;4.80;;
14776;SDS011;7480;43.124;25.686;2023-05-18T13:54:47;7.10;;;5.37;;
14776;SDS011;7480;43.124;25.686;2023-05-18T13:57:14;5.13;;;4.57;;
14776;SDS011;7480;43.124;25.686;2023-05-18T13:59:41;6.77;;;4.70;;
14776;SDS011;7480;43.124;25.686;2023-05-18T14:02:07;6.87;;;4.60;;
14776;SDS011;7480;43.124;25.686;2023-05-18T14:04:34;4.40;;;4.00;;
14776;SDS011;7480;43.124;25.686;2023-05-18T14:07:01;5.03;;;3.50;;
14776;SDS011;7480;43.124;25.686;2023-05-18T14:09:28;5.43;;;4.17;;
14776;SDS011;7480;43.124;25.686;2023-05-18T14:11:55;5.53;;;3.70;;
14776;SDS011;7480;43.124;25.686;2023-05-18T14:14:23;7.40;;;3.97;;
14776;SDS011;7480;43.124;25.686;2023-05-18T14:16:49;4.90;;;3.80;;
14776;SDS011;7480;43.124;25.686;2023-05-18T14:19:16;5.30;;;3.80;;
14776;SDS011;7480;43.124;25.686;2023-05-18T14:21:43;6.70;;;4.03;;
14776;SDS011;7480;43.124;25.686;2023-05-18T14:24:09;6.13;;;4.33;;
14776;SDS011;7480;43.124;25.686;2023-05-18T14:26:36;7.33;;;4.27;;
14776;SDS011;7480;43.124;25.686;2023-05-18T14:29:03;6.80;;;4.33;;
14776;SDS011;7480;43.124;25.686;2023-05-18T14:31:29;7.27;;;4.03;;
14776;SDS011;7480;43.124;25.686;2023-05-18T14:33:56;5.97;;;4.10;;
14776;SDS011;7480;43.124;25.686;2023-05-18T14:36:22;5.40;;;4.40;;
14776;SDS011;7480;43.124;25.686;2023-05-18T14:38:49;6.93;;;4.47;;
14776;SDS011;7480;43.124;25.686;2023-05-18T14:41:16;5.30;;;4.10;;
14776;SDS011;7480;43.124;25.686;2023-05-18T14:43:42;4.80;;;4.30;;
14776;SDS011;7480;43.124;25.686;2023-05-18T14:46:10;5.73;;;3.90;;
14776;SDS011;7480;43.124;25.686;2023-05-18T14:48:37;5.93;;;4.13;;
14776;SDS011;7480;43.124;25.686;2023-05-18T14:51:04;5.87;;;3.87;;
14776;SDS011;7480;43.124;25.686;2023-05-18T14:53:30;5.53;;;3.30;;
14776;SDS011;7480;43.124;25.686;2023-05-18T14:55:57;4.93;;;3.70;;
14776;SDS011;7480;43.124;25.686;2023-05-18T14:58:24;3.57;;;3.27;;
14776;SDS011;7480;43.124;25.686;2023-05-18T15:00:51;5.80;;;3.40;;
14776;SDS011;7480;43.124;25.686;2023-05-18T15:03:17;5.27;;;3.43;;
14776;SDS011;7480;43.124;25.686;2023-05-18T15:05:44;5.77;;;3.20;;
14776;SDS011;7480;43.124;25.686;2023-05-18T15:08:11;5.17;;;2.93;;
14776;SDS011;7480;43.124;25.686;2023-05-18T15:10:37;7.67;;;2.90;;
14776;SDS011;7480;43.124;25.686;2023-05-18T15:13:04;5.77;;;3.00;;
14776;SDS011;7480;43.124;25.686;2023-05-18T15:15:31;5.20;;;2.87;;